Weather History for KPEZ - May, 2014

Change the Weather History Date:

Thursday, May 15, 2014

  Actual Average Record
Temperature  
Mean Temperature 64 °F -  
Max Temperature 83 °F 91 °F 92 °F (1993)
Min Temperature 46 °F 67 °F 46 °F (2014)
Growing Degree Days 14 (Base 50)    
Moisture  
Dew Point 41 °F    
Average Humidity 50    
Maximum Humidity 93    
Minimum Humidity 15    
Precipitation  
Precipitation 0.00 in - - ()
Sea Level Pressure  
Sea Level Pressure 30.25 in    
Wind  
Wind Speed 2 mph (South)    
Max Wind Speed 10 mph    
Max Gust Speed 17 mph    
Visibility 10 miles    
Events      
Averages and records for this station are not official NWS values.
T = Trace of Precipitation, MM = Missing Value Source: NWS Daily Summary

Daily Weather History Graph

Daily Weather History Graph

Search for Another Location

Airport or City:

Trip Planner

Search our weather history database for the weather conditions in past years. The results will help you decide how hot, cold, wet, or windy it might be!

Date:

Astronomy

May. 15, 2014 Rise Set
Actual Time 6:42 AM CDT 8:18 PM CDT
Civil Twilight 6:16 AM CDT 8:44 PM CDT
Nautical Twilight 5:45 AM CDT 9:15 PM CDT
Astronomical Twilight 5:13 AM CDT 9:47 PM CDT
Moon 9:28 PM CDT (5/15) 7:29 AM CDT (5/15)
Length of Visible Light 14h 27m
Length of Day
13h 35m
Full, 99% of the Moon is Illuminated
May 15
Full
May 21
Last Quarter
May 28
New
Jun 5
First Quarter
Jun 12
Full

Hourly Weather History & Observations

Time (CDT) Temp. Dew Point Humidity Pressure Visibility Wind Dir Wind Speed Gust Speed Precip Events Conditions
12:15 AM 54.0 °F 48.2 °F 81% 30.27 in 10.0 mi Calm Calm - N/A   Clear
12:35 AM 54.1 °F 47.1 °F 77% 30.27 in 10.0 mi Calm Calm - N/A   Clear
12:55 AM 52.3 °F 43.7 °F 72% 30.28 in 10.0 mi Calm Calm - N/A   Clear
1:15 AM 52.3 °F 46.8 °F 81% 30.28 in 10.0 mi Calm Calm - N/A   Clear
1:35 AM 51.8 °F 43.5 °F 73% 30.29 in 10.0 mi Calm Calm - N/A   Clear
1:55 AM 52.2 °F 46.4 °F 81% 30.29 in 10.0 mi Calm Calm - N/A   Clear
2:15 AM 50.2 °F 45.7 °F 85% 30.29 in 10.0 mi Calm Calm - N/A   Clear
2:35 AM 50.4 °F 45.3 °F 83% 30.28 in 10.0 mi Calm Calm - N/A   Clear
2:55 AM 50.0 °F 44.2 °F 81% 30.28 in 10.0 mi Calm Calm - N/A   Clear
3:15 AM 50.0 °F 44.8 °F 82% 30.28 in 10.0 mi Calm Calm - N/A   Clear
3:35 AM 49.6 °F 44.1 °F 81% 30.27 in 10.0 mi Calm Calm - N/A   Clear
3:55 AM 48.9 °F 44.1 °F 83% 30.27 in 10.0 mi Calm Calm - N/A   Clear
4:15 AM 48.0 °F 43.7 °F 85% 30.27 in 10.0 mi NW 3.5 mph - N/A   Clear
4:35 AM 49.3 °F 45.7 °F 87% 30.28 in 10.0 mi Calm Calm - N/A   Clear
4:55 AM 48.9 °F 45.7 °F 89% 30.28 in 10.0 mi Calm Calm - N/A   Clear
5:15 AM 48.0 °F 45.0 °F 89% 30.28 in 10.0 mi Calm Calm - N/A   Clear
5:35 AM 47.8 °F 45.0 °F 90% 30.28 in 10.0 mi Calm Calm - N/A   Clear
5:55 AM 48.2 °F 45.5 °F 90% 30.29 in 10.0 mi Calm Calm - N/A   Clear
6:15 AM 48.4 °F 45.7 °F 90% 30.30 in 10.0 mi Calm Calm - N/A   Clear
6:35 AM 46.9 °F 44.4 °F 91% 30.30 in 10.0 mi Calm Calm - N/A   Clear
6:55 AM 46.6 °F 44.6 °F 93% 30.31 in 10.0 mi Calm Calm - N/A   Clear
7:15 AM 46.8 °F 44.6 °F 92% 30.31 in 10.0 mi Calm Calm - N/A   Clear
7:35 AM 49.1 °F 46.9 °F 92% 30.32 in 10.0 mi Calm Calm - N/A   Clear
7:55 AM 52.2 °F 49.1 °F 89% 30.32 in 10.0 mi Calm Calm - N/A   Clear
8:15 AM 55.9 °F 47.7 °F 74% 30.33 in 10.0 mi Calm Calm - N/A   Clear
8:35 AM 59.0 °F 47.3 °F 65% 30.33 in 10.0 mi Calm Calm - N/A   Clear
8:55 AM 61.0 °F 47.1 °F 60% 30.33 in 7.0 mi Calm Calm - N/A   Clear
9:15 AM 63.5 °F 46.9 °F 55% 30.33 in 10.0 mi Calm Calm - N/A   Clear
9:35 AM 66.4 °F 44.8 °F 46% 30.33 in 10.0 mi South 5.8 mph - N/A   Clear
9:55 AM 67.3 °F 44.4 °F 44% 30.33 in 10.0 mi SSW 6.9 mph - N/A   Clear
10:15 AM 68.9 °F 43.5 °F 40% 30.34 in 10.0 mi South 5.8 mph - N/A   Clear
10:35 AM 70.2 °F 43.7 °F 38% 30.34 in 10.0 mi South 3.5 mph - N/A   Clear
10:55 AM 71.8 °F 42.8 °F 35% 30.33 in 10.0 mi South 5.8 mph - N/A   Clear
11:15 AM 73.4 °F 42.4 °F 33% 30.33 in 10.0 mi South 5.8 mph - N/A   Clear
11:35 AM 74.7 °F 42.1 °F 31% 30.33 in 10.0 mi WSW 5.8 mph - N/A   Clear
11:55 AM 75.0 °F 41.5 °F 30% 30.32 in 10.0 mi SSW 5.8 mph - N/A   Clear
12:35 PM 77.0 °F 39.7 °F 26% 30.31 in 10.0 mi SSW 8.1 mph - N/A   Clear
12:55 PM 78.3 °F 37.8 °F 23% 30.29 in 10.0 mi SW 4.6 mph - N/A   Clear
1:15 PM 78.3 °F 37.4 °F 23% 30.28 in 10.0 mi SE 3.5 mph - N/A   Clear
2:15 PM 80.4 °F 37.6 °F 22% 30.25 in 10.0 mi South 4.6 mph - N/A   Clear
2:55 PM 81.1 °F 37.2 °F 21% 30.23 in 10.0 mi Calm Calm - N/A   Clear
3:15 PM 81.7 °F 34.2 °F 18% 30.22 in 10.0 mi North 3.5 mph - N/A   Clear
3:35 PM 81.7 °F 33.4 °F 18% 30.21 in 10.0 mi Calm Calm - N/A   Clear
3:55 PM 82.2 °F 33.4 °F 17% 30.21 in 10.0 mi SSE 6.9 mph - N/A   Clear
4:15 PM 83.1 °F 32.9 °F 16% 30.19 in 10.0 mi East 6.9 mph 17.3 mph N/A   Clear
4:35 PM 82.9 °F 30.9 °F 15% 30.19 in 10.0 mi WSW 3.5 mph - N/A   Clear
4:55 PM 82.9 °F 30.0 °F 15% 30.18 in 10.0 mi SSW 3.5 mph - N/A   Clear
5:15 PM 83.1 °F 31.5 °F 15% 30.17 in 10.0 mi South 4.6 mph - N/A   Clear
5:35 PM 83.1 °F 32.0 °F 16% 30.16 in 10.0 mi SSE 5.8 mph - N/A   Clear
5:55 PM 82.8 °F 32.0 °F 16% 30.16 in 10.0 mi Calm Calm - N/A   Clear
6:15 PM 82.8 °F 32.0 °F 16% 30.16 in 10.0 mi ESE 5.8 mph - N/A   Clear
6:35 PM 82.4 °F 32.4 °F 16% 30.16 in 10.0 mi SSE 3.5 mph - N/A   Clear
6:55 PM 82.2 °F 32.2 °F 16% 30.15 in 10.0 mi SE 3.5 mph - N/A   Clear
7:15 PM 81.5 °F 31.6 °F 16% 30.15 in 10.0 mi Calm Calm - N/A   Clear
7:35 PM 80.4 °F 34.9 °F 19% 30.15 in 10.0 mi SSE 6.9 mph - N/A   Clear
7:55 PM 78.8 °F 36.3 °F 22% 30.15 in 10.0 mi SSE 5.8 mph - N/A   Clear
8:15 PM 76.3 °F 36.7 °F 24% 30.16 in 10.0 mi SE 5.8 mph - N/A   Clear
8:35 PM 73.6 °F 37.6 °F 27% 30.16 in 10.0 mi SSE 4.6 mph - N/A   Clear
8:55 PM 71.8 °F 37.9 °F 29% 30.16 in 10.0 mi SSE 4.6 mph - N/A   Clear
9:15 PM 71.4 °F 37.8 °F 29% 30.18 in 10.0 mi SSE 3.5 mph - N/A   Clear
9:35 PM 70.9 °F 37.8 °F 30% 30.18 in 10.0 mi South 4.6 mph - N/A   Clear
9:55 PM 69.8 °F 38.8 °F 32% 30.19 in 10.0 mi SSE 5.8 mph - N/A   Clear
10:15 PM 69.8 °F 40.5 °F 34% 30.19 in 10.0 mi SSE 9.2 mph - N/A   Clear
10:35 PM 69.3 °F 41.2 °F 36% 30.20 in 10.0 mi SSE 10.4 mph - N/A   Clear
10:55 PM 69.3 °F 42.3 °F 38% 30.20 in 10.0 mi SSE 8.1 mph - N/A   Clear
11:15 PM 68.4 °F 44.8 °F 43% 30.20 in 10.0 mi SSE 10.4 mph - N/A   Clear
11:35 PM 67.6 °F 47.3 °F 48% 30.20 in 10.0 mi SSE 8.1 mph - N/A   Clear
11:55 PM 67.3 °F 48.7 °F 51% 30.20 in 10.0 mi South 6.9 mph - N/A   Clear